Time;durP1;ratioP1;P1;durP2;ratioP2;P2;SDS_P1;SDS_P2;PMS_P1;PMS_P2;Temp;Humidity;BMP_temperature;BMP_pressure;BME280_temperature;BME280_humidity;BME280_pressure;Samples;Min_cycle;Max_cycle;Signal;HPM_P1;HPM_P2
2021/12/15 00:02:02;;;;;;;;;;;9.30;99.90;;;;;;5052887;28;19917;-67
2021/12/15 00:04:28;;;;;;;;;;;9.40;99.90;;;;;;5052628;28;19955;-67
2021/12/15 00:06:54;;;;;;;;;;;;;;;;;;5053723;28;19908;-68
2021/12/15 00:09:20;;;;;;;;;;;;;;;;;;5053118;28;19916;-72
2021/12/15 00:11:46;;;;;;;;;;;9.30;99.90;;;;;;5053586;28;19978;-67
2021/12/15 00:14:18;;;;;;;;;;;9.30;99.90;;;;;;5053461;28;19909;-67
2021/12/15 00:16:45;;;;;;;;;;;9.30;99.90;;;;;;5053216;28;19913;-67
2021/12/15 00:19:10;;;;;;;;;;;9.30;99.90;;;;;;5053576;28;19913;-67
2021/12/15 00:21:36;;;;;;;;;;;;;;;;;;5052658;28;19928;-67
2021/12/15 00:24:03;;;;;;;;;;;9.20;99.90;;;;;;5052991;28;19916;-67
2021/12/15 00:26:29;;;;;;;;;;;9.20;99.90;;;;;;5045246;28;19913;-67
2021/12/15 00:28:54;;;;;;;;;;;9.20;99.90;;;;;;5033030;28;19920;-67
2021/12/15 00:31:20;;;;;;;;;;;;;;;;;;5031998;28;19913;-72
2021/12/15 00:33:46;;;;;;;;;;;9.10;99.90;;;;;;5033295;28;19909;-67
2021/12/15 00:36:12;;;;;;;;;;;9.10;99.90;;;;;;5033240;28;19941;-67
2021/12/15 00:38:38;;;;;;;;;;;9.10;99.90;;;;;;5014665;28;19916;-67
2021/12/15 00:41:04;;;;;;;;;;;9.20;99.90;;;;;;5015331;28;20262;-67
2021/12/15 00:43:30;;;;;;;;;;;9.20;99.90;;;;;;5032616;28;19990;-68
2021/12/15 00:45:56;;;;;;;;;;;9.20;99.90;;;;;;5032788;28;19964;-67
2021/12/15 00:48:21;;;;;;;;;;;9.20;99.90;;;;;;5032203;28;19952;-67
2021/12/15 00:50:47;;;;;;;;;;;9.10;99.90;;;;;;5015178;28;19917;-67
2021/12/15 00:53:13;;;;;;;;;;;9.10;99.90;;;;;;5032692;28;19915;-67
2021/12/15 00:55:39;;;;;;;;;;;9.20;99.90;;;;;;5031911;28;19905;-67
2021/12/15 00:58:05;;;;;;;;;;;9.20;99.90;;;;;;5051180;28;19954;-67
2021/12/15 01:00:33;;;;;;;;;;;9.20;99.90;;;;;;5052003;28;19917;-67
2021/12/15 01:02:59;;;;;;;;;;;9.20;99.90;;;;;;5034843;28;20369;-67
2021/12/15 01:05:26;;;;;;;;;;;9.30;99.90;;;;;;5051936;28;19909;-68
2021/12/15 01:07:52;;;;;;;;;;;9.20;99.90;;;;;;5052679;28;19918;-67
2021/12/15 01:10:24;;;;;;;;;;;9.20;99.90;;;;;;5052727;28;19913;-67
2021/12/15 01:20:59;;;;;;;;;;;9.20;99.90;;;;;;5052161;28;20280;-67
2021/12/15 01:23:26;;;;;;;;;;;9.30;99.90;;;;;;5051940;28;19909;-68
2021/12/15 01:26:04;;;;;;;;;;;9.20;99.90;;;;;;5051699;28;20003;-67
2021/12/15 01:28:30;;;;;;;;;;;9.20;99.90;;;;;;5031842;28;19952;-68
2021/12/15 01:30:56;;;;;;;;;;;9.20;99.90;;;;;;5032515;28;19909;-68
2021/12/15 01:33:22;;;;;;;;;;;;;;;;;;5014549;28;19916;-73
2021/12/15 01:35:48;;;;;;;;;;;9.30;99.90;;;;;;5031858;28;19996;-67
2021/12/15 01:38:15;;;;;;;;;;;9.30;99.90;;;;;;5032437;28;19935;-67
2021/12/15 01:40:43;;;;;;;;;;;9.20;99.90;;;;;;5031724;28;19925;-68
2021/12/15 01:43:17;;;;;;;;;;;9.20;99.90;;;;;;5017321;28;19909;-67
2021/12/15 01:48:27;;;;;;;;;;;9.20;99.90;;;;;;5035533;28;19917;-68
2021/12/15 01:50:52;;;;;;;;;;;9.10;99.90;;;;;;5018644;28;19917;-67
2021/12/15 01:53:18;;;;;;;;;;;9.20;99.90;;;;;;5018491;28;19916;-68
2021/12/15 01:55:44;;;;;;;;;;;9.20;99.90;;;;;;5035173;28;19912;-68
2021/12/15 01:58:09;;;;;;;;;;;9.20;99.90;;;;;;5054826;28;19920;-67
2021/12/15 02:00:38;;;;;;;;;;;9.20;99.90;;;;;;5037474;28;19917;-67
2021/12/15 02:03:04;;;;;;;;;;;9.20;99.90;;;;;;5038087;28;19909;-67
2021/12/15 02:05:30;;;;;;;;;;;9.10;99.90;;;;;;5044145;28;20387;-68
2021/12/15 02:07:59;;;;;;;;;;;9.20;99.90;;;;;;5036410;28;19952;-67
2021/12/15 02:10:27;;;;;;;;;;;;;;;;;;5035681;28;19915;-72
2021/12/15 02:12:53;;;;;;;;;;;9.20;99.90;;;;;;5035886;28;19909;-68
2021/12/15 02:15:23;;;;;;;;;;;9.20;99.90;;;;;;5035879;28;19932;-67
2021/12/15 02:17:49;;;;;;;;;;;9.20;99.90;;;;;;5035335;28;19913;-67
2021/12/15 02:20:16;;;;;;;;;;;9.20;99.90;;;;;;5014326;28;20332;-67
2021/12/15 02:22:41;;;;;;;;;;;9.10;99.90;;;;;;5015223;28;19913;-67
2021/12/15 02:25:10;;;;;;;;;;;9.00;99.90;;;;;;5015597;28;19910;-67
2021/12/15 02:27:36;;;;;;;;;;;8.90;99.90;;;;;;5015291;28;20366;-67
2021/12/15 02:30:28;;;;;;;;;;;8.90;99.90;;;;;;5015850;28;19909;-67
2021/12/15 02:33:05;;;;;;;;;;;8.90;99.90;;;;;;5014837;28;19952;-67
2021/12/15 02:38:14;;;;;;;;;;;8.90;99.90;;;;;;5034242;28;19980;-67
2021/12/15 02:40:40;;;;;;;;;;;8.90;99.90;;;;;;5034607;28;19917;-67
2021/12/15 02:43:06;;;;;;;;;;;8.90;99.90;;;;;;5035372;28;19913;-67
2021/12/15 02:45:32;;;;;;;;;;;8.90;99.90;;;;;;5034604;28;19917;-68
2021/12/15 02:47:58;;;;;;;;;;;8.90;99.90;;;;;;5034167;28;20342;-67
2021/12/15 02:50:27;;;;;;;;;;;9.00;99.90;;;;;;5035365;28;19923;-67
2021/12/15 02:52:52;;;;;;;;;;;8.90;99.90;;;;;;5034431;28;19909;-67
2021/12/15 02:55:18;;;;;;;;;;;8.90;99.90;;;;;;5035246;28;19915;-67
2021/12/15 02:57:47;;;;;;;;;;;8.90;99.90;;;;;;5015726;28;19920;-67
2021/12/15 03:00:23;;;;;;;;;;;8.80;99.90;;;;;;5013943;28;19913;-67
2021/12/15 03:05:28;;;;;;;;;;;8.80;99.90;;;;;;5025890;28;20357;-67
2021/12/15 03:08:09;;;;;;;;;;;8.70;99.90;;;;;;5034522;28;20361;-67
2021/12/15 03:16:04;;;;;;;;;;;8.80;99.90;;;;;;5034589;28;19932;-67
2021/12/15 03:18:30;;;;;;;;;;;;;;;;;;5032857;28;20361;-71
2021/12/15 03:21:01;;;;;;;;;;;8.70;99.90;;;;;;5044742;28;19924;-68
2021/12/15 03:23:30;;;;;;;;;;;8.80;99.90;;;;;;5036676;28;20423;-68
2021/12/15 03:25:57;;;;;;;;;;;8.70;99.90;;;;;;5049355;28;19913;-67
2021/12/15 03:39:22;;;;;;;;;;;8.70;99.90;;;;;;5034445;28;19909;-67
2021/12/15 03:41:55;;;;;;;;;;;8.80;99.90;;;;;;5033395;28;19948;-67
2021/12/15 03:44:21;;;;;;;;;;;8.80;99.90;;;;;;5034366;28;19967;-67
2021/12/15 03:46:46;;;;;;;;;;;8.70;99.90;;;;;;5033389;28;19952;-67
2021/12/15 03:49:12;;;;;;;;;;;8.80;99.90;;;;;;5034440;28;19945;-67
2021/12/15 03:51:37;;;;;;;;;;;8.70;99.90;;;;;;5033417;28;19917;-68
2021/12/15 03:54:03;;;;;;;;;;;8.70;99.90;;;;;;5016302;28;19932;-67
2021/12/15 03:56:29;;;;;;;;;;;;;;;;;;5033575;28;20274;-72
2021/12/15 03:58:56;;;;;;;;;;;8.70;99.90;;;;;;5033431;28;19916;-67
2021/12/15 04:01:23;;;;;;;;;;;8.60;99.90;;;;;;5033991;28;19917;-67
2021/12/15 04:03:53;;;;;;;;;;;8.60;99.90;;;;;;5033047;28;19909;-67
2021/12/15 04:06:21;;;;;;;;;;;8.60;99.90;;;;;;5033009;28;20296;-67
2021/12/15 04:08:47;;;;;;;;;;;8.60;99.90;;;;;;5033280;28;19909;-67
2021/12/15 04:11:14;;;;;;;;;;;8.60;99.90;;;;;;5016117;28;20364;-67
2021/12/15 04:13:40;;;;;;;;;;;8.60;99.90;;;;;;5014566;28;20336;-67
2021/12/15 04:16:06;;;;;;;;;;;8.60;99.90;;;;;;5033619;28;19915;-67
2021/12/15 04:18:33;;;;;;;;;;;;;;;;;;5015823;28;20318;-72
2021/12/15 04:20:59;;;;;;;;;;;8.60;99.90;;;;;;5015151;28;19925;-67
2021/12/15 04:23:24;;;;;;;;;;;8.60;99.90;;;;;;5033500;28;19940;-67
2021/12/15 04:25:51;;;;;;;;;;;8.50;99.90;;;;;;5032580;28;19917;-67
2021/12/15 04:28:28;;;;;;;;;;;8.60;99.90;;;;;;5050220;28;19970;-67
2021/12/15 04:30:55;;;;;;;;;;;8.50;99.90;;;;;;5034633;28;19909;-67
2021/12/15 04:33:24;;;;;;;;;;;8.60;99.90;;;;;;5052914;28;20353;-67
2021/12/15 04:35:52;;;;;;;;;;;8.50;99.90;;;;;;5034252;28;19909;-67
2021/12/15 04:38:17;;;;;;;;;;;8.50;99.90;;;;;;5035277;28;19908;-67
2021/12/15 04:40:43;;;;;;;;;;;8.50;99.90;;;;;;5052276;28;20368;-67
2021/12/15 04:43:10;;;;;;;;;;;8.50;99.90;;;;;;5035213;28;19909;-67
2021/12/15 04:45:36;;;;;;;;;;;;;;;;;;5052292;28;19916;-69
2021/12/15 04:48:02;;;;;;;;;;;8.40;99.90;;;;;;5033229;28;19909;-67
2021/12/15 04:50:30;;;;;;;;;;;8.40;99.90;;;;;;5039108;28;20337;-67
2021/12/15 04:52:59;;;;;;;;;;;8.40;99.90;;;;;;5052131;28;20257;-67
2021/12/15 04:55:26;;;;;;;;;;;8.30;99.90;;;;;;5052875;28;19962;-67
2021/12/15 04:57:51;;;;;;;;;;;8.30;99.90;;;;;;5034161;28;19916;-67
2021/12/15 05:00:18;;;;;;;;;;;8.40;99.90;;;;;;5052798;28;19909;-67
2021/12/15 05:02:44;;;;;;;;;;;8.30;99.90;;;;;;5034146;28;19908;-67
2021/12/15 05:05:10;;;;;;;;;;;8.30;99.90;;;;;;5052260;28;20325;-67
2021/12/15 05:07:36;;;;;;;;;;;;;;;;;;5052258;28;19909;-72
2021/12/15 05:10:03;;;;;;;;;;;8.40;99.90;;;;;;5052451;28;19908;-67
2021/12/15 05:12:28;;;;;;;;;;;8.40;99.90;;;;;;5052232;28;19909;-67
2021/12/15 05:14:54;;;;;;;;;;;8.30;99.90;;;;;;5051996;28;19967;-67
2021/12/15 05:17:19;;;;;;;;;;;8.30;99.90;;;;;;5052416;28;20388;-67
2021/12/15 05:19:46;;;;;;;;;;;8.40;99.90;;;;;;5015889;28;19913;-67
2021/12/15 05:22:13;;;;;;;;;;;8.30;99.90;;;;;;5032727;28;19917;-67
2021/12/15 05:24:40;;;;;;;;;;;8.40;99.90;;;;;;5014054;28;19916;-67
2021/12/15 05:27:11;;;;;;;;;;;8.40;99.90;;;;;;5042469;28;19908;-67
2021/12/15 05:29:36;;;;;;;;;;;;;;;;;;5052076;28;19908;-72
2021/12/15 05:32:03;;;;;;;;;;;8.30;99.90;;;;;;5034355;28;20258;-67
2021/12/15 05:34:28;;;;;;;;;;;8.40;99.90;;;;;;5052288;28;19935;-67
2021/12/15 05:36:55;;;;;;;;;;;8.40;99.90;;;;;;5051591;28;19908;-67
2021/12/15 05:39:21;;;;;;;;;;;8.40;99.90;;;;;;5052387;28;19963;-67
2021/12/15 05:41:47;;;;;;;;;;;8.40;99.90;;;;;;5033645;28;20033;-67
2021/12/15 05:44:12;;;;;;;;;;;8.50;99.90;;;;;;5052091;28;20369;-67
2021/12/15 05:46:38;;;;;;;;;;;;;;;;;;5051253;28;19909;-72
2021/12/15 05:49:04;;;;;;;;;;;8.50;99.90;;;;;;5050402;28;19936;-67
2021/12/15 05:51:30;;;;;;;;;;;8.50;99.90;;;;;;5039639;28;19964;-67
2021/12/15 05:53:56;;;;;;;;;;;8.50;99.90;;;;;;5031657;28;19909;-67
2021/12/15 05:56:21;;;;;;;;;;;8.50;99.90;;;;;;5015064;28;19916;-67
2021/12/15 05:58:47;;;;;;;;;;;8.50;99.90;;;;;;5031938;28;19909;-67
2021/12/15 06:01:13;;;;;;;;;;;8.50;99.90;;;;;;5033061;28;20276;-67
2021/12/15 06:03:39;;;;;;;;;;;;;;;;;;5031930;28;19909;-72
2021/12/15 06:06:04;;;;;;;;;;;8.50;99.90;;;;;;5032004;28;19909;-67
2021/12/15 06:08:30;;;;;;;;;;;;;;;;;;5014478;28;19913;-67
2021/12/15 06:10:56;;;;;;;;;;;8.50;99.90;;;;;;5050538;28;19909;-67
2021/12/15 06:13:26;;;;;;;;;;;8.50;99.90;;;;;;5052374;28;19909;-67
2021/12/15 06:15:52;;;;;;;;;;;;;;;;;;5051424;28;20392;-67
2021/12/15 06:18:18;;;;;;;;;;;8.60;99.90;;;;;;5052009;28;19909;-67
2021/12/15 06:20:46;;;;;;;;;;;8.60;99.90;;;;;;5033142;28;19924;-68
2021/12/15 06:23:18;;;;;;;;;;;8.60;99.90;;;;;;5034018;28;19978;-67
2021/12/15 06:25:46;;;;;;;;;;;8.60;99.90;;;;;;5051208;28;19915;-68
2021/12/15 06:28:11;;;;;;;;;;;8.60;99.90;;;;;;5052847;28;19909;-67
2021/12/15 06:30:37;;;;;;;;;;;8.60;99.90;;;;;;5035349;28;19933;-68
2021/12/15 06:33:03;;;;;;;;;;;8.60;99.90;;;;;;5051434;28;19917;-68
2021/12/15 06:35:29;;;;;;;;;;;8.60;99.90;;;;;;5034122;28;19909;-68
2021/12/15 06:37:55;;;;;;;;;;;;;;;;;;5051139;28;19920;-70
2021/12/15 06:40:20;;;;;;;;;;;;;;;;;;5049688;28;19921;-69
2021/12/15 06:42:46;;;;;;;;;;;;;;;;;;5050786;28;19996;-71
2021/12/15 06:45:15;;;;;;;;;;;8.60;99.90;;;;;;5034018;28;19912;-69
2021/12/15 06:58:27;;;;;;;;;;;;;;;;;;5051454;28;19916;-70
2021/12/15 07:00:53;;;;;;;;;;;;;;;;;;5050817;28;19920;-71
2021/12/15 07:03:19;;;;;;;;;;;;;;;;;;5033962;28;19920;-70
2021/12/15 07:05:45;;;;;;;;;;;;;;;;;;5050978;28;20388;-71
2021/12/15 07:08:11;;;;;;;;;;;;;;;;;;5050961;28;19913;-71
2021/12/15 07:10:37;;;;;;;;;;;;;;;;;;5037290;28;20410;-71
2021/12/15 07:13:03;;;;;;;;;;;8.50;99.90;;;;;;5030879;28;19913;-71
2021/12/15 07:15:31;;;;;;;;;;;;;;;;;;5031584;28;19916;-71
2021/12/15 07:18:02;;;;;;;;;;;;;;;;;;5031049;28;19917;-71
2021/12/15 07:23:29;;;;;;;;;;;;;;;;;;4969832;28;19918;-71
2021/12/15 07:25:55;;;;;;;;;;;;;;;;;;5000557;28;19913;-71
2021/12/15 07:28:24;;;;;;;;;;;;;;;;;;5013761;28;20324;-70
2021/12/15 07:30:50;;;;;;;;;;;;;;;;;;5029842;28;19909;-72
2021/12/15 07:33:16;;;;;;;;;;;;;;;;;;5031317;28;20011;-72
2021/12/15 07:35:42;;;;;;;;;;;;;;;;;;5031448;28;19913;-72
2021/12/15 07:38:08;;;;;;;;;;;;;;;;;;5031347;28;19991;-73
2021/12/15 07:40:34;;;;;;;;;;;;;;;;;;5031556;28;19942;-73
2021/12/15 07:43:07;;;;;;;;;;;8.60;99.90;;;;;;5050245;28;19925;-72
2021/12/15 07:45:33;;;;;;;;;;;;;;;;;;5051248;28;19917;-72
2021/12/15 07:47:59;;;;;;;;;;;;;;;;;;5050156;28;20372;-72
2021/12/15 07:50:25;;;;;;;;;;;;;;;;;;5050733;28;20391;-72
2021/12/15 07:52:51;;;;;;;;;;;8.70;99.90;;;;;;5050750;28;20011;-71
2021/12/15 07:55:17;;;;;;;;;;;8.70;99.90;;;;;;5054096;28;19915;-72
2021/12/15 07:57:43;;;;;;;;;;;;;;;;;;5054313;28;19931;-72
2021/12/15 08:00:09;;;;;;;;;;;8.50;99.90;;;;;;5054164;28;19909;-71
2021/12/15 08:02:35;;;;;;;;;;;8.60;99.90;;;;;;5054100;28;19913;-69
2021/12/15 08:05:00;;;;;;;;;;;8.60;99.90;;;;;;5038991;28;19928;-70
2021/12/15 08:07:26;;;;;;;;;;;8.50;99.90;;;;;;5034349;28;19916;-70
2021/12/15 08:09:51;;;;;;;;;;;8.60;99.90;;;;;;5033594;28;20369;-71
2021/12/15 08:12:17;;;;;;;;;;;8.60;99.90;;;;;;5034082;28;20349;-71
2021/12/15 08:14:42;;;;;;;;;;;8.60;99.90;;;;;;5034042;28;19913;-71
2021/12/15 08:17:08;;;;;;;;;;;;;;;;;;5030211;28;19910;-71
2021/12/15 08:19:34;;;;;;;;;;;;;;;;;;5030539;28;20059;-72
2021/12/15 08:22:00;;;;;;;;;;;;;;;;;;5029762;28;19929;-71
2021/12/15 08:24:26;;;;;;;;;;;;;;;;;;5030596;28;19913;-69
2021/12/15 08:26:52;;;;;;;;;;;9.20;99.90;;;;;;5029780;28;19941;-72
2021/12/15 08:29:17;;;;;;;;;;;;;;;;;;5029965;28;19913;-72
2021/12/15 08:31:43;;;;;;;;;;;;;;;;;;5040823;28;19917;-71
2021/12/15 08:34:09;;;;;;;;;;;;;;;;;;5049293;28;20344;-72
2021/12/15 08:36:35;;;;;;;;;;;;;;;;;;5032220;28;19913;-71
2021/12/15 08:39:01;;;;;;;;;;;8.90;99.90;;;;;;5049693;28;19970;-71
2021/12/15 08:41:26;;;;;;;;;;;;;;;;;;5049323;28;19943;-71
2021/12/15 08:43:52;;;;;;;;;;;9.00;99.90;;;;;;5048617;28;20007;-71
2021/12/15 08:46:19;;;;;;;;;;;9.00;99.90;;;;;;5053412;28;19917;-71
2021/12/15 08:48:45;;;;;;;;;;;8.80;99.90;;;;;;5053672;28;19909;-72
2021/12/15 08:51:13;;;;;;;;;;;8.80;99.90;;;;;;5034313;28;19971;-73
2021/12/15 08:53:41;;;;;;;;;;;8.90;99.90;;;;;;5053355;28;19909;-72
2021/12/15 08:56:07;;;;;;;;;;;8.90;99.90;;;;;;5052661;28;19912;-72
2021/12/15 08:58:32;;;;;;;;;;;8.90;99.90;;;;;;5052910;28;19996;-72
2021/12/15 09:00:58;;;;;;;;;;;8.90;99.90;;;;;;5030194;28;19925;-72
2021/12/15 09:03:24;;;;;;;;;;;8.90;99.90;;;;;;5033272;28;19956;-72
2021/12/15 09:05:52;;;;;;;;;;;8.80;99.90;;;;;;5032652;28;20393;-72
2021/12/15 09:08:18;;;;;;;;;;;8.90;99.90;;;;;;5032960;28;20366;-72
2021/12/15 09:10:45;;;;;;;;;;;8.90;99.90;;;;;;5033190;28;20377;-70
2021/12/15 09:13:11;;;;;;;;;;;8.80;99.90;;;;;;5044375;28;19916;-71
2021/12/15 09:15:37;;;;;;;;;;;8.90;99.90;;;;;;5052712;28;19916;-71
2021/12/15 09:18:02;;;;;;;;;;;8.90;99.90;;;;;;5034761;28;20007;-71
2021/12/15 09:20:30;;;;;;;;;;;8.90;99.90;;;;;;5031175;28;20019;-71
2021/12/15 09:22:56;;;;;;;;;;;8.90;99.90;;;;;;5031237;28;19913;-71
2021/12/15 09:25:22;;;;;;;;;;;8.90;99.90;;;;;;5017215;28;20416;-71
2021/12/15 09:27:48;;;;;;;;;;;;;;;;;;5019461;28;19909;-72
2021/12/15 09:30:18;;;;;;;;;;;9.00;99.90;;;;;;5028838;28;19913;-72
2021/12/15 09:32:44;;;;;;;;;;;;;;;;;;5029183;28;19975;-72
2021/12/15 09:35:10;;;;;;;;;;;;;;;;;;5028931;28;19949;-71
2021/12/15 09:37:36;;;;;;;;;;;;;;;;;;5028153;28;20008;-71
2021/12/15 09:40:03;;;;;;;;;;;9.10;99.90;;;;;;5027196;28;19913;-72
2021/12/15 09:42:34;;;;;;;;;;;;;;;;;;5029306;28;19917;-72
2021/12/15 09:45:15;;;;;;;;;;;;;;;;;;5028834;28;20000;-72
2021/12/15 09:48:01;;;;;;;;;;;;;;;;;;5029406;28;19921;-72
2021/12/15 10:19:51;;;;;;;;;;;;;;;;;;5013666;28;19913;-72
2021/12/15 10:22:28;;;;;;;;;;;9.40;99.90;;;;;;5034785;28;19913;-71
2021/12/15 10:24:55;;;;;;;;;;;9.30;99.90;;;;;;5036688;28;19964;-72
2021/12/15 10:27:21;;;;;;;;;;;;;;;;;;5041712;28;19917;-71
2021/12/15 10:30:01;;;;;;;;;;;9.30;99.90;;;;;;5053366;28;19915;-69
2021/12/15 10:32:31;;;;;;;;;;;9.30;99.90;;;;;;5050285;28;19909;-68
2021/12/15 10:35:04;;;;;;;;;;;9.30;99.90;;;;;;5035283;28;20368;-71
2021/12/15 10:37:30;;;;;;;;;;;9.30;99.90;;;;;;5036158;28;20004;-70
2021/12/15 10:40:16;;;;;;;;;;;9.30;99.90;;;;;;5035275;28;20350;-71
2021/12/15 10:42:41;;;;;;;;;;;9.30;99.90;;;;;;5035779;28;19963;-70
2021/12/15 10:45:08;;;;;;;;;;;9.50;99.90;;;;;;5044827;28;19913;-70
2021/12/15 10:47:41;;;;;;;;;;;9.40;99.90;;;;;;5055802;28;19909;-70
2021/12/15 10:50:10;;;;;;;;;;;9.40;99.90;;;;;;5035068;28;19925;-70
2021/12/15 10:52:47;;;;;;;;;;;9.40;99.90;;;;;;5035601;28;19916;-70
2021/12/15 10:55:13;;;;;;;;;;;9.50;99.90;;;;;;5035177;28;19913;-71
2021/12/15 10:57:44;;;;;;;;;;;9.60;99.90;;;;;;5018121;28;19920;-70
2021/12/15 11:00:11;;;;;;;;;;;9.50;99.90;;;;;;5034928;28;20008;-71
2021/12/15 11:02:37;;;;;;;;;;;9.50;99.90;;;;;;5035454;28;20400;-70
2021/12/15 11:05:05;;;;;;;;;;;9.50;99.90;;;;;;5016963;28;20323;-71
2021/12/15 11:07:32;;;;;;;;;;;9.50;99.90;;;;;;5035416;28;19913;-70
2021/12/15 11:10:07;;;;;;;;;;;9.50;99.90;;;;;;5034779;28;19909;-71
2021/12/15 11:12:34;;;;;;;;;;;9.40;99.90;;;;;;5035235;28;19916;-70
2021/12/15 11:15:10;;;;;;;;;;;9.50;99.90;;;;;;5034278;28;19909;-70
2021/12/15 11:17:40;;;;;;;;;;;9.50;99.90;;;;;;5035780;28;20365;-70
2021/12/15 11:20:06;;;;;;;;;;;;;;;;;;5034930;28;19924;-71
2021/12/15 11:22:38;;;;;;;;;;;9.60;99.90;;;;;;5051373;28;19924;-72
2021/12/15 11:25:06;;;;;;;;;;;9.60;99.90;;;;;;5053500;28;19913;-70
2021/12/15 11:27:31;;;;;;;;;;;9.60;99.90;;;;;;5054116;28;19917;-70
2021/12/15 11:29:57;;;;;;;;;;;9.60;99.90;;;;;;5054173;28;19913;-71
2021/12/15 11:32:35;;;;;;;;;;;9.60;99.90;;;;;;5054568;28;19912;-70
2021/12/15 11:35:06;;;;;;;;;;;9.60;99.90;;;;;;5054132;28;19913;-70
2021/12/15 11:37:45;;;;;;;;;;;9.50;99.90;;;;;;5037007;28;20274;-70
2021/12/15 11:40:11;;;;;;;;;;;;;;;;;;5053622;28;20427;-70
2021/12/15 11:42:38;;;;;;;;;;;9.60;99.90;;;;;;5054524;28;19917;-70
2021/12/15 11:45:08;;;;;;;;;;;9.60;99.90;;;;;;5053916;28;19919;-70
2021/12/15 11:47:33;;;;;;;;;;;9.60;99.90;;;;;;5053911;28;19909;-71
2021/12/15 11:50:16;;;;;;;;;;;9.60;99.90;;;;;;5017166;28;20008;-70
2021/12/15 11:52:45;;;;;;;;;;;9.60;99.90;;;;;;5043641;28;19913;-70
2021/12/15 11:55:22;;;;;;;;;;;9.60;99.90;;;;;;5053748;28;19920;-70
2021/12/15 11:57:48;;;;;;;;;;;9.60;99.90;;;;;;5054358;28;20324;-70
2021/12/15 12:00:20;;;;;;;;;;;9.60;99.90;;;;;;5053415;28;19908;-70
2021/12/15 12:02:47;;;;;;;;;;;9.60;99.90;;;;;;5037456;28;19917;-70
2021/12/15 12:05:28;;;;;;;;;;;9.70;99.90;;;;;;5033700;28;19971;-70
2021/12/15 12:07:56;;;;;;;;;;;;;;;;;;5034192;28;19909;-70
2021/12/15 12:10:24;;;;;;;;;;;9.60;99.90;;;;;;5015930;28;19967;-70
2021/12/15 12:13:02;;;;;;;;;;;9.70;99.90;;;;;;5034150;28;19932;-70
2021/12/15 12:15:28;;;;;;;;;;;9.60;99.90;;;;;;5034119;28;19909;-70
2021/12/15 12:17:56;;;;;;;;;;;9.60;99.90;;;;;;5035173;28;20026;-70
2021/12/15 12:20:24;;;;;;;;;;;9.70;99.90;;;;;;5032988;28;19968;-70
2021/12/15 12:22:50;;;;;;;;;;;9.70;99.90;;;;;;5043601;28;19925;-70
2021/12/15 12:25:18;;;;;;;;;;;9.60;99.90;;;;;;5052829;28;19916;-70
2021/12/15 12:27:44;;;;;;;;;;;9.60;99.90;;;;;;5052717;28;19909;-70
2021/12/15 12:30:30;;;;;;;;;;;9.60;99.90;;;;;;5052963;28;19940;-70
2021/12/15 12:32:56;;;;;;;;;;;9.60;99.90;;;;;;5034607;28;19939;-70
2021/12/15 12:35:26;;;;;;;;;;;9.60;99.90;;;;;;5052917;28;20315;-69
2021/12/15 12:37:53;;;;;;;;;;;9.60;99.90;;;;;;5053263;28;19955;-69
2021/12/15 12:40:23;;;;;;;;;;;9.60;99.90;;;;;;5052929;28;20119;-70
2021/12/15 12:42:49;;;;;;;;;;;;;;;;;;5053476;28;19936;-70
2021/12/15 12:45:19;;;;;;;;;;;9.60;99.90;;;;;;5052556;28;20365;-69
2021/12/15 12:48:01;;;;;;;;;;;9.50;99.90;;;;;;5051915;28;19909;-69
2021/12/15 13:01:15;;;;;;;;;;;9.50;99.90;;;;;;5032679;28;19939;-69
2021/12/15 13:03:45;;;;;;;;;;;9.50;99.90;;;;;;5033252;28;19925;-69
2021/12/15 13:06:12;;;;;;;;;;;9.50;99.90;;;;;;5032684;28;20361;-69
2021/12/15 13:08:38;;;;;;;;;;;;;;;;;;5033146;28;19909;-69
2021/12/15 13:11:06;;;;;;;;;;;9.50;99.90;;;;;;5037828;28;19984;-69
2021/12/15 13:13:32;;;;;;;;;;;;;;;;;;5051896;28;19923;-69
2021/12/15 13:16:03;;;;;;;;;;;9.50;99.90;;;;;;5052549;28;19913;-69
2021/12/15 13:18:42;;;;;;;;;;;9.50;99.90;;;;;;5052307;28;19913;-68
2021/12/15 13:21:10;;;;;;;;;;;9.50;99.90;;;;;;5051379;28;20028;-68
2021/12/15 13:23:48;;;;;;;;;;;9.50;99.90;;;;;;5052520;28;19931;-67
2021/12/15 13:29:19;;;;;;;;;;;9.50;99.90;;;;;;5050999;28;19970;-68
2021/12/15 13:31:53;;;;;;;;;;;9.50;99.90;;;;;;5052413;28;19913;-68
2021/12/15 13:34:33;;;;;;;;;;;9.50;99.90;;;;;;5051581;28;19909;-68
2021/12/15 13:37:00;;;;;;;;;;;9.50;99.90;;;;;;5052440;28;19915;-67
2021/12/15 13:39:39;;;;;;;;;;;9.50;99.90;;;;;;5036307;28;20563;-66
2021/12/15 13:42:12;;;;;;;;;;;;;;;;;;5056091;28;19971;-73
2021/12/15 13:44:43;;;;;;;;;;;9.50;99.90;;;;;;5056705;28;19913;-68
2021/12/15 13:47:09;;;;;;;;;;;9.50;99.90;;;;;;5037750;28;19916;-68
2021/12/15 13:49:53;;;;;;;;;;;9.50;99.90;;;;;;5056554;28;19909;-71
2021/12/15 13:52:28;;;;;;;;;;;9.50;99.90;;;;;;5055543;28;19916;-68
2021/12/15 13:54:55;;;;;;;;;;;9.50;99.90;;;;;;5056327;28;19909;-66
2021/12/15 13:57:26;;;;;;;;;;;9.50;99.90;;;;;;5037604;28;20388;-69
2021/12/15 13:59:52;;;;;;;;;;;;;;;;;;5056362;28;19913;-69
2021/12/15 14:02:24;;;;;;;;;;;9.50;99.90;;;;;;5044541;28;19964;-69
2021/12/15 14:04:50;;;;;;;;;;;;;;;;;;5050118;28;19956;-71
2021/12/15 14:07:16;;;;;;;;;;;;;;;;;;5031082;28;20011;-70
2021/12/15 14:09:41;;;;;;;;;;;9.60;99.90;;;;;;5035574;28;19928;-70
2021/12/15 14:12:07;;;;;;;;;;;;;;;;;;5033316;28;19909;-74
2021/12/15 14:14:33;;;;;;;;;;;;;;;;;;5032189;28;20365;-71
2021/12/15 14:16:59;;;;;;;;;;;;;;;;;;5031299;28;19913;-70
2021/12/15 14:19:25;;;;;;;;;;;;;;;;;;5045507;28;19908;-71
2021/12/15 14:21:50;;;;;;;;;;;9.50;99.90;;;;;;5048739;28;20431;-70
2021/12/15 14:24:16;;;;;;;;;;;;;;;;;;5040563;28;20315;-68
2021/12/15 14:26:42;;;;;;;;;;;;;;;;;;5032482;28;19913;-71
2021/12/15 14:29:08;;;;;;;;;;;;;;;;;;5013849;28;19913;-75
2021/12/15 14:31:34;;;;;;;;;;;;;;;;;;5042826;28;20015;-70
2021/12/15 14:34:05;;;;;;;;;;;9.50;99.90;;;;;;5053467;28;19913;-68
2021/12/15 14:36:31;;;;;;;;;;;;;;;;;;5052935;28;20340;-70
2021/12/15 14:38:57;;;;;;;;;;;;;;;;;;5048677;28;19921;-69
2021/12/15 14:41:29;;;;;;;;;;;;;;;;;;5030870;28;19971;-69
2021/12/15 14:43:56;;;;;;;;;;;9.50;99.90;;;;;;5031927;28;19913;-68
2021/12/15 14:46:22;;;;;;;;;;;;;;;;;;5013505;28;19964;-68
2021/12/15 14:48:48;;;;;;;;;;;;;;;;;;5031258;28;19917;-71
2021/12/15 14:51:14;;;;;;;;;;;;;;;;;;5031911;28;19921;-70
2021/12/15 14:53:41;;;;;;;;;;;9.50;99.90;;;;;;5015066;28;19939;-69
2021/12/15 14:56:07;;;;;;;;;;;;;;;;;;5014903;28;19912;-75
2021/12/15 14:58:33;;;;;;;;;;;;;;;;;;5033344;28;19909;-72
2021/12/15 15:00:58;;;;;;;;;;;9.50;99.90;;;;;;5042695;28;19923;-68
2021/12/15 15:03:23;;;;;;;;;;;9.40;99.90;;;;;;5042858;28;20397;-70
2021/12/15 15:05:50;;;;;;;;;;;9.40;99.90;;;;;;5044521;28;19935;-69
2021/12/15 15:08:21;;;;;;;;;;;9.40;99.90;;;;;;5044609;28;19952;-69
2021/12/15 15:10:47;;;;;;;;;;;9.40;99.90;;;;;;5043698;28;19909;-69
2021/12/15 15:13:13;;;;;;;;;;;;;;;;;;5041705;28;19935;-70
2021/12/15 15:15:40;;;;;;;;;;;9.40;99.90;;;;;;5044545;28;19974;-69
2021/12/15 15:20:43;;;;;;;;;;;;;;;;;;5042614;28;19929;-73
2021/12/15 15:23:08;;;;;;;;;;;;;;;;;;5042457;28;19912;-81
2021/12/15 15:25:34;;;;;;;;;;;;;;;;;;5043681;28;20262;-69
2021/12/15 15:28:02;;;;;;;;;;;9.40;99.90;;;;;;5039331;28;20361;-69
2021/12/15 15:30:29;;;;;;;;;;;9.40;99.90;;;;;;5033300;28;20559;-67
2021/12/15 15:32:57;;;;;;;;;;;9.40;99.90;;;;;;5034472;28;19957;-69
2021/12/15 15:35:25;;;;;;;;;;;9.30;99.90;;;;;;5051827;28;20277;-71
2021/12/15 15:37:54;;;;;;;;;;;9.40;99.90;;;;;;5043972;28;19919;-70
2021/12/15 15:40:19;;;;;;;;;;;9.40;99.90;;;;;;5030379;28;20416;-69
2021/12/15 15:42:46;;;;;;;;;;;9.30;99.90;;;;;;5053855;28;20020;-72
2021/12/15 15:45:12;;;;;;;;;;;;;;;;;;5035310;28;19917;-79
2021/12/15 15:47:37;;;;;;;;;;;9.30;99.90;;;;;;5054073;28;20258;-73
2021/12/15 15:50:06;;;;;;;;;;;9.40;99.90;;;;;;5035982;28;19921;-71
2021/12/15 15:52:39;;;;;;;;;;;9.40;99.90;;;;;;5053098;28;20078;-70
2021/12/15 15:55:05;;;;;;;;;;;9.40;99.90;;;;;;5053699;28;19912;-69
2021/12/15 15:57:30;;;;;;;;;;;9.30;99.90;;;;;;5051239;28;19909;-71
2021/12/15 15:59:56;;;;;;;;;;;;;;;;;;5050624;28;19909;-72
2021/12/15 16:02:22;;;;;;;;;;;9.40;99.90;;;;;;5051731;28;19916;-74
2021/12/15 16:04:47;;;;;;;;;;;9.40;99.90;;;;;;5053678;28;20015;-77
2021/12/15 16:07:13;;;;;;;;;;;;;;;;;;5047680;28;20381;-81
2021/12/15 16:09:39;;;;;;;;;;;9.40;99.90;;;;;;5015984;28;20336;-71
2021/12/15 16:12:07;;;;;;;;;;;9.40;99.90;;;;;;5033821;28;19909;-72
2021/12/15 16:14:33;;;;;;;;;;;9.40;99.90;;;;;;5032847;28;20022;-72
2021/12/15 16:17:13;;;;;;;;;;;9.40;99.90;;;;;;5015840;28;19909;-72
2021/12/15 16:19:53;;;;;;;;;;;9.50;99.90;;;;;;5033377;28;19940;-73
2021/12/15 16:25:10;;;;;;;;;;;;;;;;;;5033214;28;19916;-75
2021/12/15 16:27:40;;;;;;;;;;;9.40;99.90;;;;;;5034128;28;20288;-71
2021/12/15 16:30:06;;;;;;;;;;;9.40;99.90;;;;;;5031881;28;19909;-71
2021/12/15 16:32:39;;;;;;;;;;;9.50;99.90;;;;;;5041824;28;20327;-72
2021/12/15 16:35:16;;;;;;;;;;;9.40;99.90;;;;;;5048926;28;20373;-71
2021/12/15 16:37:42;;;;;;;;;;;9.30;99.90;;;;;;5025571;28;19916;-70
2021/12/15 16:40:08;;;;;;;;;;;;;;;;;;5035251;28;19963;-71